createdAt,value
2022-09-29T00:00:19.000Z,10.6
2022-09-29T00:01:31.000Z,10.7
2022-09-29T00:02:44.000Z,10.5
2022-09-29T00:03:55.000Z,10.6
2022-09-29T00:05:07.000Z,10.6
2022-09-29T00:06:19.000Z,10.7
2022-09-29T00:07:31.000Z,10.9
2022-09-29T00:08:44.000Z,10.4
2022-09-29T00:09:56.000Z,10.7
2022-09-29T00:11:08.000Z,10.6
2022-09-29T00:12:20.000Z,10.8
2022-09-29T00:13:32.000Z,10.7
2022-09-29T00:14:45.000Z,10.8
2022-09-29T00:15:57.000Z,10.4
2022-09-29T00:17:09.000Z,10.6
2022-09-29T00:18:21.000Z,10.6
2022-09-29T00:19:33.000Z,10.6
2022-09-29T00:20:44.000Z,10.6
2022-09-29T00:21:57.000Z,10.6
2022-09-29T00:23:09.000Z,10.6
2022-09-29T00:24:21.000Z,10.8
2022-09-29T00:25:33.000Z,10.4
2022-09-29T00:26:45.000Z,10.7
2022-09-29T00:27:58.000Z,10.8
2022-09-29T00:29:10.000Z,10.7
2022-09-29T00:30:22.000Z,10.6
2022-09-29T00:31:34.000Z,10.6
2022-09-29T00:32:46.000Z,10.6
2022-09-29T00:33:58.000Z,10.6
2022-09-29T00:35:11.000Z,10.8
2022-09-29T00:36:22.000Z,10.8
2022-09-29T00:37:34.000Z,10.6
2022-09-29T00:38:46.000Z,10.8
2022-09-29T00:39:58.000Z,10.8
2022-09-29T00:41:11.000Z,10.6
2022-09-29T00:42:23.000Z,10.6
2022-09-29T00:43:35.000Z,10.6
2022-09-29T00:44:47.000Z,10.6
2022-09-29T00:45:59.000Z,10.6
2022-09-29T00:47:12.000Z,10.6
2022-09-29T00:48:24.000Z,10.8
2022-09-29T00:49:36.000Z,10.6
2022-09-29T00:50:48.000Z,10.9
2022-09-29T00:51:59.000Z,10.6
2022-09-29T00:53:11.000Z,10.6
2022-09-29T00:54:24.000Z,10.6
2022-09-29T00:55:36.000Z,10.6
2022-09-29T00:56:48.000Z,10.8
2022-09-29T00:58:00.000Z,10.7
2022-09-29T00:59:12.000Z,10.6
2022-09-29T01:00:25.000Z,10.6
2022-09-29T01:01:37.000Z,10.6
2022-09-29T01:02:49.000Z,10.8
2022-09-29T01:04:01.000Z,10.4
2022-09-29T01:05:13.000Z,11.2
2022-09-29T01:06:26.000Z,10.8
2022-09-29T01:07:37.000Z,10.8
2022-09-29T01:08:49.000Z,10.8
2022-09-29T01:10:01.000Z,10.8
2022-09-29T01:11:13.000Z,10.7
2022-09-29T01:12:25.000Z,10.8
2022-09-29T01:13:38.000Z,10.8
2022-09-29T01:14:50.000Z,10.8
2022-09-29T01:16:02.000Z,10.7
2022-09-29T01:17:14.000Z,10.8
2022-09-29T01:18:26.000Z,10.9
2022-09-29T01:19:39.000Z,10.6
2022-09-29T01:20:51.000Z,10.6
2022-09-29T01:22:03.000Z,10.4
2022-09-29T01:23:14.000Z,10.6
2022-09-29T01:24:26.000Z,10.4
2022-09-29T01:25:39.000Z,10.7
2022-09-29T01:26:51.000Z,10.6
2022-09-29T01:28:03.000Z,10.4
2022-09-29T01:29:15.000Z,10.8
2022-09-29T01:30:27.000Z,10.6
2022-09-29T01:31:39.000Z,10.6
2022-09-29T01:32:52.000Z,10.7
2022-09-29T01:34:04.000Z,10.8
2022-09-29T01:35:16.000Z,10.5
2022-09-29T01:36:28.000Z,10.4
2022-09-29T01:37:40.000Z,10.6
2022-09-29T01:38:52.000Z,10.9
2022-09-29T01:40:04.000Z,10.4
2022-09-29T01:41:16.000Z,10.8
2022-09-29T01:42:28.000Z,10.6
2022-09-29T01:43:40.000Z,10.6
2022-09-29T01:44:53.000Z,10.7
2022-09-29T01:46:05.000Z,10.6
2022-09-29T01:47:17.000Z,10.7
2022-09-29T01:48:29.000Z,10.4
2022-09-29T01:49:41.000Z,10.6
2022-09-29T01:50:53.000Z,10.6
2022-09-29T01:52:06.000Z,10.8
2022-09-29T01:53:18.000Z,10.6
2022-09-29T01:54:29.000Z,10.8
2022-09-29T01:55:41.000Z,10.5
2022-09-29T01:56:53.000Z,10.8
2022-09-29T01:58:06.000Z,10.4
2022-09-29T01:59:18.000Z,10.6
2022-09-29T02:00:30.000Z,10.6
2022-09-29T02:01:42.000Z,10.7
2022-09-29T02:02:54.000Z,10.8
2022-09-29T02:04:06.000Z,10.6
2022-09-29T02:05:19.000Z,10.8
2022-09-29T02:06:31.000Z,10.6
2022-09-29T02:07:43.000Z,10.5
2022-09-29T02:08:55.000Z,10.8
2022-09-29T02:10:07.000Z,10.6
2022-09-29T02:11:19.000Z,10.8
2022-09-29T02:12:31.000Z,10.6
2022-09-29T02:13:43.000Z,10.5
2022-09-29T02:14:55.000Z,10.6
2022-09-29T02:16:07.000Z,10.6
2022-09-29T02:17:20.000Z,10.6
2022-09-29T02:18:32.000Z,10.6
2022-09-29T02:19:44.000Z,10.8
2022-09-29T02:20:56.000Z,10.7
2022-09-29T02:22:08.000Z,10.4
2022-09-29T02:23:20.000Z,10.6
2022-09-29T02:24:33.000Z,10.6
2022-09-29T02:25:45.000Z,10.6
2022-09-29T02:26:56.000Z,11.2
2022-09-29T02:28:08.000Z,10.5
2022-09-29T02:29:20.000Z,10.8
2022-09-29T02:30:33.000Z,10.6
2022-09-29T02:31:45.000Z,10.6
2022-09-29T02:32:57.000Z,10.6
2022-09-29T02:34:09.000Z,10.8
2022-09-29T02:35:21.000Z,10.6
2022-09-29T02:36:34.000Z,10.6
2022-09-29T02:37:46.000Z,10.7
2022-09-29T02:38:58.000Z,10.4
2022-09-29T02:40:10.000Z,10.8
2022-09-29T02:41:22.000Z,10.4
2022-09-29T02:42:34.000Z,10.6
2022-09-29T02:43:46.000Z,10.7
2022-09-29T02:44:58.000Z,10.6
2022-09-29T02:46:10.000Z,10.8
2022-09-29T02:47:22.000Z,10.6
2022-09-29T02:48:34.000Z,10.6
2022-09-29T02:49:47.000Z,10.8
2022-09-29T02:50:59.000Z,10.8
2022-09-29T02:52:11.000Z,10.7
2022-09-29T02:53:23.000Z,10.6
2022-09-29T02:54:35.000Z,10.4
2022-09-29T02:55:48.000Z,10.8
2022-09-29T02:57:00.000Z,10.6
2022-09-29T02:58:12.000Z,10.6
2022-09-29T02:59:23.000Z,10.8
2022-09-29T03:00:35.000Z,10.6
2022-09-29T03:01:47.000Z,10.6
2022-09-29T03:02:59.000Z,10.8
2022-09-29T03:04:11.000Z,10.6
2022-09-29T03:05:23.000Z,10.6
2022-09-29T03:06:35.000Z,10.6
2022-09-29T03:07:47.000Z,10.5
2022-09-29T03:09:00.000Z,10.6
2022-09-29T03:10:12.000Z,10.6
2022-09-29T03:12:36.000Z,10.8
2022-09-29T03:13:48.000Z,10.7
2022-09-29T03:15:01.000Z,10.6
2022-09-29T03:16:13.000Z,10.8
2022-09-29T03:17:18.208Z,10.4
2022-09-29T03:17:25.000Z,10.6
2022-09-29T03:18:36.000Z,10.6
2022-09-29T03:19:48.000Z,10.8
2022-09-29T03:21:00.000Z,10.6
2022-09-29T03:22:13.000Z,10.8
2022-09-29T03:23:25.000Z,10.8
2022-09-29T03:24:37.000Z,10.6
2022-09-29T03:25:49.000Z,10.8
2022-09-29T03:27:01.000Z,10.8
2022-09-29T03:28:14.000Z,10.4
2022-09-29T03:29:26.000Z,10.4
2022-09-29T03:30:38.000Z,10.7
2022-09-29T03:31:50.000Z,10.5
2022-09-29T03:33:02.000Z,10.6
2022-09-29T03:34:14.000Z,10.8
2022-09-29T03:35:26.000Z,10.8
2022-09-29T03:36:38.000Z,10.6
2022-09-29T03:37:50.000Z,10.5
2022-09-29T03:39:02.000Z,10.5
2022-09-29T03:40:14.000Z,10.8
2022-09-29T03:41:27.000Z,10.5
2022-09-29T03:42:39.000Z,10.6
2022-09-29T03:43:51.000Z,10.8
2022-09-29T03:45:03.000Z,10.5
2022-09-29T03:46:15.000Z,10.6
2022-09-29T03:47:28.000Z,10.7
2022-09-29T03:48:40.000Z,10.5
2022-09-29T03:49:51.000Z,10.6
2022-09-29T03:51:03.000Z,10.5
2022-09-29T03:52:15.000Z,10.7
2022-09-29T03:53:28.000Z,10.4
2022-09-29T03:54:40.000Z,10.6
2022-09-29T03:55:52.000Z,10.6
2022-09-29T03:57:04.000Z,10.4
2022-09-29T03:58:16.000Z,10.5
2022-09-29T03:59:28.000Z,10.4
2022-09-29T04:00:41.000Z,10.9
2022-09-29T04:01:53.000Z,10.4
2022-09-29T04:03:05.000Z,10.6
2022-09-29T04:04:17.000Z,10.6
2022-09-29T04:05:28.000Z,10.6
2022-09-29T04:06:41.000Z,10.6
2022-09-29T04:07:53.000Z,10.6
2022-09-29T04:09:05.000Z,10.6
2022-09-29T04:10:17.000Z,10.6
2022-09-29T04:11:29.000Z,10.6
2022-09-29T04:12:41.000Z,10.8
2022-09-29T04:13:54.000Z,10.4
2022-09-29T04:15:06.000Z,10.8
2022-09-29T04:16:18.000Z,10.4
2022-09-29T04:17:30.000Z,10.6
2022-09-29T04:18:42.000Z,10.6
2022-09-29T04:19:55.000Z,10.5
2022-09-29T04:21:07.000Z,10.7
2022-09-29T04:22:18.000Z,10.7
2022-09-29T04:23:30.000Z,10.6
2022-09-29T04:24:42.000Z,10.6
2022-09-29T04:25:55.000Z,10.5
2022-09-29T04:27:07.000Z,10.4
2022-09-29T04:28:19.000Z,10.8
2022-09-29T04:29:31.000Z,10.6
2022-09-29T04:30:43.000Z,10.7
2022-09-29T04:31:55.000Z,10.2
2022-09-29T04:33:08.000Z,10.4
2022-09-29T04:34:20.000Z,10.6
2022-09-29T04:35:32.000Z,10.6
2022-09-29T04:36:44.000Z,10.5
2022-09-29T04:37:55.000Z,10.5
2022-09-29T04:39:08.000Z,10.4
2022-09-29T04:40:20.000Z,10.4
2022-09-29T04:41:32.000Z,10.3
2022-09-29T04:43:56.000Z,10.6
2022-09-29T04:45:09.000Z,10.4
2022-09-29T04:46:21.000Z,10.4
2022-09-29T04:47:33.000Z,10.5
2022-09-29T04:48:38.466Z,10.7
2022-09-29T04:48:45.000Z,10.6
2022-09-29T04:49:57.000Z,10.7
2022-09-29T04:51:09.000Z,10.2
2022-09-29T04:52:22.000Z,10.5
2022-09-29T04:53:33.000Z,10.6
2022-09-29T04:54:45.000Z,10.6
2022-09-29T04:55:57.000Z,10.3
2022-09-29T04:57:09.000Z,10.6
2022-09-29T04:58:22.000Z,10.6
2022-09-29T04:59:34.000Z,10.4
2022-09-29T05:00:46.000Z,10.5
2022-09-29T05:01:58.000Z,10.6
2022-09-29T05:03:10.000Z,10.4
2022-09-29T05:04:23.000Z,10.4
2022-09-29T05:05:35.000Z,10.6
2022-09-29T05:06:47.000Z,10.6
2022-09-29T05:07:59.000Z,10.6
2022-09-29T05:09:10.000Z,10.3
2022-09-29T05:10:22.000Z,10.4
2022-09-29T05:11:35.000Z,10.4
2022-09-29T05:12:47.000Z,10.6
2022-09-29T05:13:59.000Z,10.4
2022-09-29T05:15:11.000Z,10.4
2022-09-29T05:16:23.000Z,10.3
2022-09-29T05:17:36.000Z,10.5
2022-09-29T05:18:48.000Z,10.3
2022-09-29T05:20:00.000Z,10.4
2022-09-29T05:21:12.000Z,10.6
2022-09-29T05:22:24.000Z,10.4
2022-09-29T05:23:37.000Z,10.5
2022-09-29T05:24:48.000Z,10.2
2022-09-29T05:26:00.000Z,10.7
2022-09-29T05:27:12.000Z,10.6
2022-09-29T05:28:24.000Z,10.4
2022-09-29T05:29:36.000Z,10.5
2022-09-29T05:30:49.000Z,10.5
2022-09-29T05:32:01.000Z,10.8
2022-09-29T05:34:25.000Z,10.5
2022-09-29T05:35:37.000Z,10.6
2022-09-29T05:36:50.000Z,10.6
2022-09-29T05:38:02.000Z,10.4
2022-09-29T05:39:07.333Z,10.4
2022-09-29T05:39:14.000Z,10.6
2022-09-29T05:40:25.000Z,10.5
2022-09-29T05:41:37.000Z,10.6
2022-09-29T05:42:50.000Z,10.4
2022-09-29T05:44:02.000Z,10.6
2022-09-29T05:45:14.000Z,10.6
2022-09-29T05:46:26.000Z,10.6
2022-09-29T05:47:38.000Z,10.5
2022-09-29T05:48:50.000Z,10.4
2022-09-29T05:50:03.000Z,10.7
2022-09-29T05:51:15.000Z,10.4
2022-09-29T05:52:27.000Z,10.6
2022-09-29T05:53:39.000Z,10.4
2022-09-29T05:54:51.000Z,10.5
2022-09-29T05:56:03.000Z,10.2
2022-09-29T05:57:15.000Z,10.6
2022-09-29T05:58:27.000Z,10.5
2022-09-29T05:59:39.000Z,10.4
2022-09-29T06:00:51.000Z,10.4
2022-09-29T06:02:03.000Z,10.4
2022-09-29T06:03:16.000Z,10.4
2022-09-29T06:04:28.000Z,10.4
2022-09-29T06:05:40.000Z,10.4
2022-09-29T06:06:52.000Z,10.3
2022-09-29T06:08:04.000Z,10.5
2022-09-29T06:09:17.000Z,10.3
2022-09-29T06:10:29.000Z,10.2
2022-09-29T06:11:40.000Z,10.2
2022-09-29T06:12:52.000Z,10.4
2022-09-29T06:14:04.000Z,10.5
2022-09-29T06:15:17.000Z,10.4
2022-09-29T06:16:29.000Z,10.6
2022-09-29T06:17:41.000Z,10.6
2022-09-29T06:18:53.000Z,10.6
2022-09-29T06:20:05.000Z,10.4
2022-09-29T06:22:30.000Z,10.4
2022-09-29T06:24:54.000Z,10.3
2022-09-29T06:26:06.000Z,10.5
2022-09-29T06:27:11.848Z,10.4
2022-09-29T06:27:17.000Z,10.4
2022-09-29T06:28:30.000Z,10.2
2022-09-29T06:29:36.212Z,10.6
2022-09-29T06:29:42.000Z,10.5
2022-09-29T06:30:54.000Z,10.7
2022-09-29T06:32:06.000Z,10.6
2022-09-29T06:33:18.000Z,10.5
2022-09-29T06:34:31.000Z,10.4
2022-09-29T06:35:43.000Z,10.3
2022-09-29T06:36:55.000Z,10.6
2022-09-29T06:38:07.000Z,10.2
2022-09-29T06:39:19.000Z,10.2
2022-09-29T06:40:31.000Z,10.6
2022-09-29T06:41:44.000Z,10.3
2022-09-29T06:42:55.000Z,10.6
2022-09-29T06:44:07.000Z,10.5
2022-09-29T06:45:19.000Z,10.6
2022-09-29T06:46:31.000Z,10.4
2022-09-29T06:47:44.000Z,10.2
2022-09-29T06:48:56.000Z,10.2
2022-09-29T06:51:20.000Z,10.4
2022-09-29T06:52:32.000Z,10.4
2022-09-29T06:53:45.000Z,10.6
2022-09-29T06:54:57.000Z,10.3
2022-09-29T06:56:02.000Z,10.6
2022-09-29T06:56:09.000Z,10.4
2022-09-29T06:57:21.000Z,10
2022-09-29T06:58:32.000Z,10.2
2022-09-29T06:59:44.000Z,10.3
2022-09-29T07:00:57.000Z,10.3
2022-09-29T07:02:09.000Z,10.3
2022-09-29T07:03:21.000Z,10.3
2022-09-29T07:04:32.000Z,10.4
2022-09-29T07:05:44.000Z,10.6
2022-09-29T07:06:57.000Z,10
2022-09-29T07:08:09.000Z,10.2
2022-09-29T07:09:21.000Z,10.3
2022-09-29T07:10:33.000Z,10.2
2022-09-29T07:11:45.000Z,10.4
2022-09-29T07:12:58.000Z,10.3
2022-09-29T07:14:10.000Z,10.5
2022-09-29T07:15:22.000Z,10.4
2022-09-29T07:16:34.000Z,10.2
2022-09-29T07:17:46.000Z,10.3
2022-09-29T07:18:58.000Z,10.2
2022-09-29T07:20:10.000Z,10.6
2022-09-29T07:21:22.000Z,10.3
2022-09-29T07:22:34.000Z,10.4
2022-09-29T07:23:46.000Z,10.3
2022-09-29T07:24:58.000Z,10.2
2022-09-29T07:26:11.000Z,10.5
2022-09-29T07:27:23.000Z,10.3
2022-09-29T07:28:35.000Z,10.3
2022-09-29T07:29:47.000Z,10.1
2022-09-29T07:30:59.000Z,10.3
2022-09-29T07:32:12.000Z,10
2022-09-29T07:33:24.000Z,10.3
2022-09-29T07:34:36.000Z,10.4
2022-09-29T07:35:48.000Z,10.5
2022-09-29T07:36:59.000Z,10.3
2022-09-29T07:38:11.000Z,10.3
2022-09-29T07:39:24.000Z,10.3
2022-09-29T07:40:36.000Z,10.2
2022-09-29T07:41:48.000Z,10.3
2022-09-29T07:43:00.000Z,10
2022-09-29T07:44:12.000Z,10.3
2022-09-29T07:45:25.000Z,10
2022-09-29T07:46:37.000Z,10.5
2022-09-29T07:47:49.000Z,10.3
2022-09-29T07:49:01.000Z,10.5
2022-09-29T07:50:13.000Z,10
2022-09-29T07:51:25.000Z,10
2022-09-29T07:52:37.000Z,10.3
2022-09-29T07:53:49.000Z,10.5
2022-09-29T07:55:01.000Z,10.2
2022-09-29T07:56:13.000Z,10.4
2022-09-29T07:57:25.000Z,10.3
2022-09-29T07:58:38.000Z,10.3
2022-09-29T07:59:50.000Z,10.3
2022-09-29T08:01:02.000Z,10.1
2022-09-29T08:02:14.000Z,10.4
2022-09-29T08:03:26.000Z,10
2022-09-29T08:04:39.000Z,10.4
2022-09-29T08:05:51.000Z,10.4
2022-09-29T08:07:03.000Z,10
2022-09-29T08:08:14.000Z,10.2
2022-09-29T08:09:26.000Z,10.5
2022-09-29T08:10:38.000Z,10
2022-09-29T08:11:51.000Z,10.2
2022-09-29T08:13:03.000Z,10.7
2022-09-29T08:14:15.000Z,10.6
2022-09-29T08:15:27.000Z,10.4
2022-09-29T08:16:39.000Z,10.4
2022-09-29T08:17:52.000Z,10.3
2022-09-29T08:19:04.000Z,10.3
2022-09-29T08:20:16.000Z,10.5
2022-09-29T08:21:28.000Z,10.4
2022-09-29T08:22:40.000Z,10.4
2022-09-29T08:23:52.000Z,10.3
2022-09-29T08:25:04.000Z,10.1
2022-09-29T08:26:16.000Z,10.6
2022-09-29T08:27:28.000Z,10.3
2022-09-29T08:28:40.000Z,10.4
2022-09-29T08:29:52.000Z,10.6
2022-09-29T08:31:05.000Z,10.4
2022-09-29T08:32:17.000Z,10
2022-09-29T08:33:29.000Z,10.2
2022-09-29T08:34:41.000Z,10
2022-09-29T08:35:53.000Z,10.1
2022-09-29T08:37:06.000Z,10.3
2022-09-29T08:38:18.000Z,10.2
2022-09-29T08:39:29.000Z,10.3
2022-09-29T08:40:41.000Z,10
2022-09-29T08:41:53.000Z,10.1
2022-09-29T08:43:06.000Z,10.3
2022-09-29T08:44:18.000Z,10.2
2022-09-29T08:45:30.000Z,10.4
2022-09-29T08:46:42.000Z,10.5
2022-09-29T08:47:54.000Z,9.9
2022-09-29T08:49:06.000Z,10
2022-09-29T08:50:19.000Z,10.3
2022-09-29T08:51:31.000Z,10
2022-09-29T08:52:43.000Z,10.3
2022-09-29T08:53:55.000Z,10.6
2022-09-29T08:55:06.000Z,10.4
2022-09-29T08:56:19.000Z,10.6
2022-09-29T08:57:31.000Z,10.4
2022-09-29T08:58:43.000Z,10.3
2022-09-29T08:59:55.000Z,10.3
2022-09-29T09:01:07.000Z,9.9
2022-09-29T09:02:20.000Z,10.4
2022-09-29T09:03:32.000Z,10.6
2022-09-29T09:04:44.000Z,10.6
2022-09-29T09:05:56.000Z,10.4
2022-09-29T09:07:08.000Z,10.3
2022-09-29T09:08:20.000Z,10.6
2022-09-29T09:09:33.000Z,10.3
2022-09-29T09:10:44.000Z,10.5
2022-09-29T09:11:56.000Z,10.4
2022-09-29T09:13:08.000Z,10.5
2022-09-29T09:14:20.000Z,10.7
2022-09-29T09:15:33.000Z,10.4
2022-09-29T09:16:45.000Z,10.6
2022-09-29T09:17:57.000Z,10.2
2022-09-29T09:19:09.000Z,10.6
2022-09-29T09:20:21.000Z,10.5
2022-09-29T09:22:46.000Z,10.3
2022-09-29T09:23:58.000Z,10.5
2022-09-29T09:25:10.000Z,10.4
2022-09-29T09:26:21.000Z,10.6
2022-09-29T09:27:27.934Z,10.6
2022-09-29T09:27:33.000Z,10.4
2022-09-29T09:28:46.000Z,10.4
2022-09-29T09:29:58.000Z,10.6
2022-09-29T09:31:10.000Z,10.3
2022-09-29T09:32:22.000Z,10.6
2022-09-29T09:33:34.000Z,10.5
2022-09-29T09:34:47.000Z,10.6
2022-09-29T09:35:59.000Z,10.5
2022-09-29T09:37:11.000Z,10.4
2022-09-29T09:38:23.000Z,10.6
2022-09-29T09:39:35.000Z,10.5
2022-09-29T09:40:47.000Z,10.7
2022-09-29T09:41:59.000Z,10.6
2022-09-29T09:43:11.000Z,10.8
2022-09-29T09:44:23.000Z,10.6
2022-09-29T09:45:35.000Z,10.6
2022-09-29T09:46:47.000Z,10.3
2022-09-29T09:48:00.000Z,10.8
2022-09-29T09:49:12.000Z,10.7
2022-09-29T09:50:24.000Z,10.6
2022-09-29T09:51:36.000Z,10.7
2022-09-29T09:52:48.000Z,10.5
2022-09-29T09:54:00.000Z,10.6
2022-09-29T09:55:13.000Z,10.8
2022-09-29T09:56:25.000Z,10.5
2022-09-29T09:57:36.000Z,10.6
2022-09-29T09:58:48.000Z,10.7
2022-09-29T10:00:00.000Z,10.8
2022-09-29T10:01:13.000Z,10.6
2022-09-29T10:02:25.000Z,10.7
2022-09-29T10:03:37.000Z,10.8
2022-09-29T10:04:49.000Z,10.6
2022-09-29T10:06:01.000Z,11.2
2022-09-29T10:07:13.000Z,10.6
2022-09-29T10:08:26.000Z,10.8
2022-09-29T10:09:38.000Z,10.6
2022-09-29T10:10:50.000Z,10.3
2022-09-29T10:12:02.000Z,11.2
2022-09-29T10:13:13.000Z,10.6
2022-09-29T10:14:26.000Z,10.5
2022-09-29T10:15:38.000Z,10.3
2022-09-29T10:16:50.000Z,10.7
2022-09-29T10:18:02.000Z,10.7
2022-09-29T10:19:14.000Z,10.7
2022-09-29T10:20:27.000Z,10.8
2022-09-29T10:21:39.000Z,10.7
2022-09-29T10:22:51.000Z,10.7
2022-09-29T10:24:03.000Z,10.6
2022-09-29T10:25:15.000Z,10.5
2022-09-29T10:26:27.000Z,10.4
2022-09-29T10:27:40.000Z,10.7
2022-09-29T10:28:51.000Z,10.8
2022-09-29T10:30:03.000Z,10.5
2022-09-29T10:31:15.000Z,10.9
2022-09-29T10:32:27.000Z,10.6
2022-09-29T10:33:40.000Z,10.6
2022-09-29T10:34:52.000Z,10.7
2022-09-29T10:36:04.000Z,10.8
2022-09-29T10:37:16.000Z,10.4
2022-09-29T10:38:28.000Z,10.6
2022-09-29T10:39:40.000Z,10.8
2022-09-29T10:40:53.000Z,10.7
2022-09-29T10:42:05.000Z,10.7
2022-09-29T10:43:17.000Z,10.6
2022-09-29T10:44:28.000Z,10.8
2022-09-29T10:45:40.000Z,10.5
2022-09-29T10:46:53.000Z,10.6
2022-09-29T10:48:05.000Z,10.6
2022-09-29T10:49:17.000Z,10.8
2022-09-29T10:51:41.000Z,10.5
2022-09-29T10:52:54.000Z,10.7
2022-09-29T10:54:06.000Z,10.8
2022-09-29T10:55:18.000Z,10.6
2022-09-29T10:56:23.000Z,10.8
2022-09-29T10:56:30.000Z,11
2022-09-29T10:57:42.000Z,11.2
2022-09-29T10:58:54.000Z,10.7
2022-09-29T11:00:06.000Z,10.6
2022-09-29T11:01:18.000Z,10.6
2022-09-29T11:02:30.000Z,10.8
2022-09-29T11:03:42.000Z,10.5
2022-09-29T11:04:54.000Z,10.6
2022-09-29T11:06:06.000Z,10.6
2022-09-29T11:07:18.000Z,10.6
2022-09-29T11:08:30.000Z,10.8
2022-09-29T11:09:42.000Z,10.7
2022-09-29T11:10:54.000Z,10.7
2022-09-29T11:12:07.000Z,10.5
2022-09-29T11:13:19.000Z,10.5
2022-09-29T11:14:31.000Z,10.8
2022-09-29T11:15:43.000Z,10.5
2022-09-29T11:16:55.000Z,11.1
2022-09-29T11:18:07.000Z,10.7
2022-09-29T11:19:20.000Z,10.8
2022-09-29T11:20:32.000Z,10.5
2022-09-29T11:21:43.000Z,11.2
2022-09-29T11:22:55.000Z,10.7
2022-09-29T11:24:07.000Z,11.1
2022-09-29T11:25:20.000Z,10.6
2022-09-29T11:26:32.000Z,11
2022-09-29T11:27:44.000Z,10.7
2022-09-29T11:28:56.000Z,11.1
2022-09-29T11:30:08.000Z,11.2
2022-09-29T11:31:20.000Z,11
2022-09-29T11:32:33.000Z,10.6
2022-09-29T11:33:45.000Z,10.7
2022-09-29T11:34:57.000Z,10.7
2022-09-29T11:36:09.000Z,11.1
2022-09-29T11:37:20.000Z,10.6
2022-09-29T11:38:33.000Z,10.8
2022-09-29T11:39:45.000Z,11.1
2022-09-29T11:40:57.000Z,10.8
2022-09-29T11:42:09.000Z,11.2
2022-09-29T11:43:21.000Z,10.8
2022-09-29T11:44:34.000Z,10.5
2022-09-29T11:45:46.000Z,11.2
2022-09-29T11:46:58.000Z,10.8
2022-09-29T11:48:10.000Z,10.5
2022-09-29T11:49:22.000Z,10.7
2022-09-29T11:50:34.000Z,10.5
2022-09-29T11:51:47.000Z,10.5
2022-09-29T11:52:58.000Z,11.1
2022-09-29T11:54:10.000Z,11
2022-09-29T11:56:34.000Z,11.2
2022-09-29T11:57:47.000Z,10.7
2022-09-29T11:58:59.000Z,11.1
2022-09-29T12:00:11.000Z,11.2
2022-09-29T12:01:16.000Z,10.6
2022-09-29T12:01:23.000Z,11.1
2022-09-29T12:02:35.000Z,10.5
2022-09-29T12:03:47.000Z,11.1
2022-09-29T12:05:00.000Z,10.7
2022-09-29T12:06:12.000Z,11.3
2022-09-29T12:07:24.000Z,11.3
2022-09-29T12:08:35.000Z,11.1
2022-09-29T12:09:47.000Z,10.7
2022-09-29T12:11:00.000Z,11.2
2022-09-29T12:12:12.000Z,11.2
2022-09-29T12:13:24.000Z,10.6
2022-09-29T12:14:36.000Z,11.1
2022-09-29T12:15:48.000Z,10.8
2022-09-29T12:17:01.000Z,11.2
2022-09-29T12:18:13.000Z,11.1
2022-09-29T12:20:37.000Z,11.1
2022-09-29T12:21:49.000Z,10.6
2022-09-29T12:23:01.000Z,11.2
2022-09-29T12:24:13.000Z,11.1
2022-09-29T12:25:19.477Z,11.1
2022-09-29T12:25:25.000Z,11.3
2022-09-29T12:26:37.000Z,10.6
2022-09-29T12:27:49.000Z,11.1
2022-09-29T12:29:01.000Z,11.1
2022-09-29T12:30:14.000Z,11.1
2022-09-29T12:31:26.000Z,11.2
2022-09-29T12:32:38.000Z,10.6
2022-09-29T12:33:50.000Z,10.7
2022-09-29T12:35:02.000Z,10.6
2022-09-29T12:36:14.000Z,11.4
2022-09-29T12:37:27.000Z,11.2
2022-09-29T12:39:50.000Z,10.7
2022-09-29T12:41:02.000Z,11.1
2022-09-29T12:42:14.000Z,10.6
2022-09-29T12:43:27.000Z,10.8
2022-09-29T12:44:33.458Z,10.6
2022-09-29T12:44:39.000Z,10.7
2022-09-29T12:45:51.000Z,11.1
2022-09-29T12:47:03.000Z,11.4
2022-09-29T12:48:15.000Z,11.2
2022-09-29T12:49:28.000Z,10.8
2022-09-29T12:50:40.000Z,11.2
2022-09-29T12:51:52.000Z,11.2
2022-09-29T12:53:04.000Z,10.7
2022-09-29T12:54:16.000Z,11.2
2022-09-29T12:55:27.000Z,10.7
2022-09-29T12:56:40.000Z,11.3
2022-09-29T12:57:52.000Z,11
2022-09-29T12:59:04.000Z,11.5
2022-09-29T13:00:16.000Z,11.3
2022-09-29T13:01:28.000Z,11
2022-09-29T13:02:41.000Z,11.3
2022-09-29T13:03:53.000Z,11.3
2022-09-29T13:05:05.000Z,10.7
2022-09-29T13:06:17.000Z,11.2
2022-09-29T13:07:29.000Z,10.7
2022-09-29T13:08:41.000Z,11.3
2022-09-29T13:09:54.000Z,10.8
2022-09-29T13:11:05.000Z,11.2
2022-09-29T13:12:17.000Z,10.6
2022-09-29T13:13:29.000Z,11
2022-09-29T13:14:41.000Z,10.8
2022-09-29T13:15:54.000Z,10.7
2022-09-29T13:17:06.000Z,10.8
2022-09-29T13:18:18.000Z,10.6
2022-09-29T13:19:30.000Z,10.8
2022-09-29T13:20:42.000Z,11
2022-09-29T13:21:55.000Z,11.2
2022-09-29T13:23:07.000Z,10.6
2022-09-29T13:24:19.000Z,11.2
2022-09-29T13:25:31.000Z,10.8
2022-09-29T13:26:42.000Z,11.2
2022-09-29T13:27:54.000Z,11.2
2022-09-29T13:29:07.000Z,11.1
2022-09-29T13:30:19.000Z,11.1
2022-09-29T13:31:31.000Z,11
2022-09-29T13:32:43.000Z,11.3
2022-09-29T13:33:55.000Z,11.3
2022-09-29T13:35:08.000Z,10.8
2022-09-29T13:36:20.000Z,11.2
2022-09-29T13:37:32.000Z,11.4
2022-09-29T13:38:44.000Z,11.3
2022-09-29T13:39:56.000Z,11.2
2022-09-29T13:41:08.000Z,11.1
2022-09-29T13:42:20.000Z,11.3
2022-09-29T13:43:32.000Z,11.1
2022-09-29T13:44:44.000Z,11.2
2022-09-29T13:45:56.000Z,10.6
2022-09-29T13:47:08.000Z,10.8
2022-09-29T13:48:21.000Z,10.8
2022-09-29T13:49:33.000Z,11.1
2022-09-29T13:50:45.000Z,10.8
2022-09-29T13:51:57.000Z,11.3
2022-09-29T13:53:09.000Z,11.3
2022-09-29T13:54:22.000Z,11.4
2022-09-29T13:55:34.000Z,11.1
2022-09-29T13:56:46.000Z,11.2
2022-09-29T13:57:57.000Z,11.2
2022-09-29T13:59:09.000Z,11.4
2022-09-29T14:00:21.000Z,11.2
2022-09-29T14:01:34.000Z,11.4
2022-09-29T14:02:46.000Z,11.2
2022-09-29T14:03:58.000Z,11.1
2022-09-29T14:05:10.000Z,11.1
2022-09-29T14:06:22.000Z,11.3
2022-09-29T14:07:35.000Z,11.1
2022-09-29T14:08:47.000Z,11.2
2022-09-29T14:09:59.000Z,11.3
2022-09-29T14:11:11.000Z,11
2022-09-29T14:12:23.000Z,11.3
2022-09-29T14:13:34.000Z,11.2
2022-09-29T14:14:47.000Z,11.3
2022-09-29T14:15:59.000Z,11.3
2022-09-29T14:17:11.000Z,11.1
2022-09-29T14:18:23.000Z,11.1
2022-09-29T14:19:35.000Z,11.1
2022-09-29T14:20:48.000Z,11.3
2022-09-29T14:22:00.000Z,11.3
2022-09-29T14:23:12.000Z,11.4
2022-09-29T14:24:24.000Z,11.4
2022-09-29T14:25:36.000Z,11.3
2022-09-29T14:28:01.000Z,11.1
2022-09-29T14:29:12.000Z,11.4
2022-09-29T14:30:24.000Z,11.1
2022-09-29T14:31:36.000Z,11.2
2022-09-29T14:32:43.196Z,11.4
2022-09-29T14:32:48.000Z,11.3
2022-09-29T14:34:01.000Z,11.1
2022-09-29T14:35:13.000Z,11.1
2022-09-29T14:36:25.000Z,11.3
2022-09-29T14:37:37.000Z,11.2
2022-09-29T14:38:49.000Z,11.3
2022-09-29T14:40:02.000Z,11.2
2022-09-29T14:41:14.000Z,11.3
2022-09-29T14:42:26.000Z,11.1
2022-09-29T14:43:38.000Z,11.3
2022-09-29T14:44:49.000Z,11.3
2022-09-29T14:46:01.000Z,11.3
2022-09-29T14:47:14.000Z,11.2
2022-09-29T14:48:26.000Z,11.3
2022-09-29T14:49:38.000Z,11.1
2022-09-29T14:50:50.000Z,11.3
2022-09-29T14:52:02.000Z,11.1
2022-09-29T14:53:15.000Z,11.2
2022-09-29T14:54:27.000Z,11.2
2022-09-29T14:55:39.000Z,11.3
2022-09-29T14:56:51.000Z,11.3
2022-09-29T14:58:03.000Z,11.2
2022-09-29T14:59:16.000Z,11.3
2022-09-29T15:00:28.000Z,11.2
2022-09-29T15:01:39.000Z,11.3
2022-09-29T15:02:51.000Z,11.3
2022-09-29T15:04:03.000Z,11.3
2022-09-29T15:05:15.000Z,11.1
2022-09-29T15:06:28.000Z,11.2
2022-09-29T15:07:39.000Z,11.3
2022-09-29T15:08:51.000Z,11.2
2022-09-29T15:10:03.000Z,11.1
2022-09-29T15:11:15.000Z,11.1
2022-09-29T15:12:28.000Z,11.3
2022-09-29T15:13:40.000Z,11.4
2022-09-29T15:14:52.000Z,11
2022-09-29T15:16:04.000Z,11.3
2022-09-29T15:17:16.000Z,11.3
2022-09-29T15:18:28.000Z,11.2
2022-09-29T15:19:41.000Z,11.2
2022-09-29T15:20:53.000Z,11.2
2022-09-29T15:22:05.000Z,11.1
2022-09-29T15:23:17.000Z,11.2
2022-09-29T15:24:28.000Z,11.2
2022-09-29T15:25:41.000Z,11.8
2022-09-29T15:26:53.000Z,11.3
2022-09-29T15:28:05.000Z,11.1
2022-09-29T15:29:17.000Z,11.4
2022-09-29T15:30:29.000Z,11.1
2022-09-29T15:31:42.000Z,11.2
2022-09-29T15:32:54.000Z,11.2
2022-09-29T15:34:06.000Z,11.8
2022-09-29T15:35:18.000Z,11.7
2022-09-29T15:37:42.000Z,11.1
2022-09-29T15:38:55.000Z,11.1
2022-09-29T15:40:06.000Z,11.4
2022-09-29T15:41:18.000Z,11.2
2022-09-29T15:42:24.995Z,11.3
2022-09-29T15:42:30.000Z,11.1
2022-09-29T15:43:42.000Z,11.3
2022-09-29T15:44:55.000Z,11.1
2022-09-29T15:46:07.000Z,11.1
2022-09-29T15:47:19.000Z,11.3
2022-09-29T15:48:31.000Z,11.7
2022-09-29T15:49:43.000Z,11.7
2022-09-29T15:50:55.000Z,11.3
2022-09-29T15:52:08.000Z,11.7
2022-09-29T15:53:20.000Z,11.2
2022-09-29T15:54:32.000Z,11.3
2022-09-29T15:55:43.000Z,11.4
2022-09-29T15:56:55.000Z,11.3
2022-09-29T15:58:08.000Z,11.2
2022-09-29T15:59:20.000Z,11.7
2022-09-29T16:00:32.000Z,11.8
2022-09-29T16:01:44.000Z,11.3